Smyrna, Michigan
Current Conditions -  °F | °C
As of 5:14 AM on Sunday 23 Nov 2014 (Local Time) from KY70 Reporting Station
Overcast Overcast  
Wind Chill: 43°   Ceiling: 1400
Heat Index: 48°   Visibility: 10mi
Dew Point: 46°   Wind: 12mph
Humidity: 91%   Direction: 210°SSW
Pressure: 29.84"   Gusts: NA
Location:  43.06°N, 85.26°W
Report Text: KY70 231014Z AUTO 21010KT 10SM OVC014 09/08 A2984 RMK AO2 T00900076
Loading
Personal Weather Stations






























Interactive Weather Map New forecast layout! Learn more

10-Day Weather Forecast

Advertisements
Track Severe Weather on mobile